Time;durP1;ratioP1;P1;durP2;ratioP2;P2;SDS_P1;SDS_P2;PMS_P1;PMS_P2;Temp;Humidity;BMP_temperature;BMP_pressure;BME280_temperature;BME280_humidity;BME280_pressure;Samples;Min_cycle;Max_cycle;Signal;HPM_P1;HPM_P2
2020/12/29 00:01:13;;;;;;;;;;;;;;;;;;5026162;28;20308;-68
2020/12/29 00:03:40;;;;;;;;;;;;;;;;;;5026485;28;19929;-68
2020/12/29 00:06:07;;;;;;;;;;;;;;;;;;5026322;28;19929;-68
2020/12/29 00:08:34;;;;;;;;;;;;;;;;;;5025669;28;19939;-68
2020/12/29 00:11:01;;;;;;;;;;;;;;;;;;5025779;28;19933;-68
2020/12/29 00:13:28;;;;;;;;;;;;;;;;;;5026179;28;19935;-68
2020/12/29 00:15:56;;;;;;;;;;;;;;;;;;5024764;28;19962;-68
2020/12/29 00:18:23;;;;;;;;;;;;;;;;;;5026152;28;19940;-71
2020/12/29 00:20:50;;;;;;;;;;;;;;;;;;5026169;28;19936;-71
2020/12/29 00:23:17;;;;;;;;;;;;;;;;;;5026274;28;20340;-68
2020/12/29 00:25:44;;;;;;;;;;;;;;;;;;5025170;28;20015;-69
2020/12/29 00:28:11;;;;;;;;;;;;;;;;;;5026645;28;19935;-69
2020/12/29 00:30:38;;;;;;;;;;;;;;;;;;5033634;28;19929;-68
2020/12/29 00:33:05;;;;;;;;;;;;;;;;;;5032064;28;19936;-69
2020/12/29 00:35:32;;;;;;;;;;;;;;;;;;5032981;28;20400;-69
2020/12/29 00:37:59;;;;;;;;;;;;;;;;;;5033002;28;19929;-69
2020/12/29 00:40:26;;;;;;;;;;;;;;;;;;5033081;28;19932;-69
2020/12/29 00:42:53;;;;;;;;;;;;;;;;;;5032917;28;19925;-69
2020/12/29 00:45:20;;;;;;;;;;;;;;;;;;5033455;28;20399;-68
2020/12/29 00:47:48;;;;;;;;;;;;;;;;;;5030952;28;19925;-69
2020/12/29 00:50:15;;;;;;;;;;;;;;;;;;5032368;28;20265;-68
2020/12/29 00:52:42;;;;;;;;;;;;;;;;;;5032388;28;19976;-69
2020/12/29 00:55:09;;;;;;;;;;;;;;;;;;5033805;28;20031;-69
2020/12/29 00:57:36;;;;;;;;;;;;;;;;;;5030130;28;20356;-68
2020/12/29 01:00:03;;;;;;;;;;;;;;;;;;5030600;28;19935;-69
2020/12/29 01:02:30;;;;;;;;;;;;;;;;;;5032460;28;19929;-69
2020/12/29 01:04:57;;;;;;;;;;;;;;;;;;5031176;28;19929;-68
2020/12/29 01:07:24;;;;;;;;;;;;;;;;;;5032604;28;19956;-69
2020/12/29 01:09:51;;;;;;;;;;;;;;;;;;5032364;28;19932;-68
2020/12/29 01:12:19;;;;;;;;;;;;;;;;;;5032978;28;19929;-68
2020/12/29 01:14:46;;;;;;;;;;;;;;;;;;5033062;28;20368;-69
2020/12/29 01:17:13;;;;;;;;;;;;;;;;;;5032680;28;20320;-69
2020/12/29 01:19:40;;;;;;;;;;;;;;;;;;5032490;28;20031;-68
2020/12/29 01:22:07;;;;;;;;;;;;;;;;;;5032843;28;20036;-69
2020/12/29 01:24:35;;;;;;;;;;;;;;;;;;5033170;28;20308;-69
2020/12/29 01:27:02;;;;;;;;;;;;;;;;;;5032776;28;19929;-69
2020/12/29 01:29:29;;;;;;;;;;;;;;;;;;5034039;28;19952;-69
2020/12/29 01:31:56;;;;;;;;;;;;;;;;;;5032524;28;19968;-70
2020/12/29 01:34:23;;;;;;;;;;;;;;;;;;5032629;28;20284;-69
2020/12/29 01:36:50;;;;;;;;;;;;;;;;;;5033157;28;20377;-69
2020/12/29 01:39:17;;;;;;;;;;;;;;;;;;5032032;28;19948;-69
2020/12/29 01:41:44;;;;;;;;;;;;;;;;;;5029266;28;19929;-69
2020/12/29 01:44:11;;;;;;;;;;;;;;;;;;5029400;28;20011;-68
2020/12/29 01:46:39;;;;;;;;;;;;;;;;;;5029657;28;20067;-69
2020/12/29 01:49:06;;;;;;;;;;;;;;;;;;5029435;28;19979;-69
2020/12/29 01:51:33;;;;;;;;;;;;;;;;;;5029704;28;19933;-68
2020/12/29 01:54:00;;;;;;;;;;;;;;;;;;5030593;28;19929;-68
2020/12/29 01:56:27;;;;;;;;;;;;;;;;;;5029312;28;19929;-69
2020/12/29 01:58:54;;;;;;;;;;;;;;;;;;5029491;28;19929;-69
2020/12/29 02:01:21;;;;;;;;;;;;;;;;;;5028776;28;19929;-68
2020/12/29 02:03:49;;;;;;;;;;;;;;;;;;5027606;28;19929;-68
2020/12/29 02:06:16;;;;;;;;;;;;;;;;;;5027679;28;20275;-68
2020/12/29 02:08:43;;;;;;;;;;;;;;;;;;5028405;28;20395;-68
2020/12/29 02:11:10;;;;;;;;;;;;;;;;;;5028969;28;19929;-68
2020/12/29 02:13:37;;;;;;;;;;;;;;;;;;5022366;28;19926;-69
2020/12/29 02:16:05;;;;;;;;;;;;;;;;;;5023378;28;19935;-69
2020/12/29 02:18:32;;;;;;;;;;;;;;;;;;5028328;28;19925;-69
2020/12/29 02:20:59;;;;;;;;;;;;;;;;;;5027916;28;20273;-69
2020/12/29 02:23:26;;;;;;;;;;;;;;;;;;5028164;28;20307;-69
2020/12/29 02:25:53;;;;;;;;;;;;;;;;;;5009998;28;19934;-69
2020/12/29 02:28:20;;;;;;;;;;;;;;;;;;5028714;28;19932;-69
2020/12/29 02:30:47;;;;;;;;;;;;;;;;;;5018330;28;19929;-69
2020/12/29 02:33:14;;;;;;;;;;;;;;;;;;5028611;28;20288;-69
2020/12/29 02:35:41;;;;;;;;;;;;;;;;;;5029035;28;19925;-69
2020/12/29 02:38:08;;;;;;;;;;;;;;;;;;5027909;28;19935;-70
2020/12/29 02:40:35;;;;;;;;;;;;;;;;;;5029404;28;20177;-69
2020/12/29 02:43:02;;;;;;;;;;;;;;;;;;5027405;28;20284;-69
2020/12/29 02:45:29;;;;;;;;;;;;;;;;;;5027493;28;19947;-68
2020/12/29 02:47:56;;;;;;;;;;;;;;;;;;5028227;28;19925;-68
2020/12/29 02:50:23;;;;;;;;;;;;;;;;;;5027280;28;20280;-69
2020/12/29 02:52:51;;;;;;;;;;;;;;;;;;5027884;28;19929;-69
2020/12/29 02:55:18;;;;;;;;;;;;;;;;;;5028468;28;20316;-69
2020/12/29 02:57:45;;;;;;;;;;;;;;;;;;5027553;28;19929;-69
2020/12/29 03:00:12;;;;;;;;;;;;;;;;;;5024539;28;19931;-69
2020/12/29 03:02:39;;;;;;;;;;;;;;;;;;5026614;28;19968;-68
2020/12/29 03:05:06;;;;;;;;;;;;;;;;;;5027812;28;20047;-69
2020/12/29 03:07:33;;;;;;;;;;;;;;;;;;5028298;28;20308;-69
2020/12/29 03:10:00;;;;;;;;;;;;;;;;;;5027714;28;20357;-68
2020/12/29 03:12:28;;;;;;;;;;;;;;;;;;5027411;28;19929;-68
2020/12/29 03:14:55;;;;;;;;;;;;;;;;;;5027685;28;19971;-69
2020/12/29 03:17:22;;;;;;;;;;;;;;;;;;5027908;28;19929;-69
2020/12/29 03:19:49;;;;;;;;;;;;;;;;;;5024908;28;20023;-69
2020/12/29 03:22:16;;;;;;;;;;;;;;;;;;5026994;28;19944;-68
2020/12/29 03:24:43;;;;;;;;;;;;;;;;;;5026535;28;19944;-69
2020/12/29 03:27:10;;;;;;;;;;;;;;;;;;5027413;28;20343;-69
2020/12/29 03:29:37;;;;;;;;;;;;;;;;;;5026956;28;19929;-69
2020/12/29 03:32:04;;;;;;;;;;;;;;;;;;5028268;28;19935;-69
2020/12/29 03:34:37;;;;;;;;;;;;;;;;;;5028249;28;20376;-69
2020/12/29 03:37:04;;;;;;;;;;;;;;;;;;5028199;28;19929;-69
2020/12/29 03:39:31;;;;;;;;;;;;;;;;;;5027369;28;19929;-69
2020/12/29 03:41:58;;;;;;;;;;;;;;;;;;5027598;28;20019;-69
2020/12/29 03:44:25;;;;;;;;;;;;;;;;;;5027835;28;19925;-69
2020/12/29 03:46:53;;;;;;;;;;;;;;;;;;5028508;28;19972;-68
2020/12/29 03:49:20;;;;;;;;;;;;;;;;;;5027623;28;19931;-68
2020/12/29 03:51:47;;;;;;;;;;;;;;;;;;5022644;28;19932;-69
2020/12/29 03:54:14;;;;;;;;;;;;;;;;;;5028254;28;19929;-69
2020/12/29 03:56:42;;;;;;;;;;;;;;;;;;5026998;28;19932;-68
2020/12/29 03:59:09;;;;;;;;;;;;;;;;;;5027814;28;20016;-68
2020/12/29 04:01:36;;;;;;;;;;;;;;;;;;5027861;28;20001;-69
2020/12/29 04:04:03;;;;;;;;;;;;;;;;;;5026877;28;20373;-69
2020/12/29 04:06:30;;;;;;;;;;;;;;;;;;5027171;28;19945;-69
2020/12/29 04:08:57;;;;;;;;;;;;;;;;;;5026576;28;19925;-68
2020/12/29 04:11:24;;;;;;;;;;;;;;;;;;5028117;28;19936;-68
2020/12/29 04:13:52;;;;;;;;;;;;;;;;;;5027048;28;19929;-69
2020/12/29 04:16:32;;;;;;;;;;;;;;;;;;686591;28;10001879;-68
2020/12/29 04:18:59;;;;;;;;;;;;;;;;;;5024649;28;19951;-69
2020/12/29 04:21:26;;;;;;;;;;;;;;;;;;5027544;28;20046;-69
2020/12/29 04:23:53;;;;;;;;;;;;;;;;;;5026817;28;20008;-69
2020/12/29 04:26:20;;;;;;;;;;;;;;;;;;5026828;28;19941;-68
2020/12/29 04:28:47;;;;;;;;;;;;;;;;;;5027143;28;20375;-69
2020/12/29 04:31:15;;;;;;;;;;;;;;;;;;5025942;28;19929;-68
2020/12/29 04:33:42;;;;;;;;;;;;;;;;;;5026798;28;20299;-69
2020/12/29 04:36:09;;;;;;;;;;;;;;;;;;5027509;28;19931;-68
2020/12/29 04:38:36;;;;;;;;;;;;;;;;;;5026964;28;19940;-69
2020/12/29 04:41:03;;;;;;;;;;;;;;;;;;5026466;28;19933;-69
2020/12/29 04:43:31;;;;;;;;;;;;;;;;;;5026933;28;20467;-69
2020/12/29 04:45:58;;;;;;;;;;;;;;;;;;5027207;28;20020;-69
2020/12/29 04:48:25;;;;;;;;;;;;;;;;;;5027183;28;19940;-69
2020/12/29 04:50:52;;;;;;;;;;;;;;;;;;5020461;28;19925;-69
2020/12/29 04:53:19;;;;;;;;;;;;;;;;;;5026340;28;20404;-69
2020/12/29 04:55:46;;;;;;;;;;;;;;;;;;5027945;28;19932;-68
2020/12/29 04:58:13;;;;;;;;;;;;;;;;;;5026123;28;20670;-68
2020/12/29 05:00:40;;;;;;;;;;;;;;;;;;5023380;28;19928;-69
2020/12/29 05:03:07;;;;;;;;;;;;;;;;;;5025163;28;19925;-69
2020/12/29 05:05:34;;;;;;;;;;;;;;;;;;5026236;28;19936;-69
2020/12/29 05:08:02;;;;;;;;;;;;;;;;;;5027314;28;20352;-69
2020/12/29 05:10:29;;;;;;;;;;;;;;;;;;5010721;28;19939;-69
2020/12/29 05:12:56;;;;;;;;;;;;;;;;;;5025875;28;19929;-69
2020/12/29 05:15:23;;;;;;;;;;;;;;;;;;5027592;28;20339;-69
2020/12/29 05:17:51;;;;;;;;;;;;;;;;;;5030150;28;19939;-69
2020/12/29 05:20:18;;;;;;;;;;;;;;;;;;5029211;28;19933;-69
2020/12/29 05:22:45;;;;;;;;;;;;;;;;;;5029758;28;19932;-69
2020/12/29 05:25:12;;;;;;;;;;;;;;;;;;5030808;28;19933;-69
2020/12/29 05:27:39;;;;;;;;;;;;;;;;;;5029071;28;19935;-69
2020/12/29 05:30:06;;;;;;;;;;;;;;;;;;5026180;28;20380;-69
2020/12/29 05:32:33;;;;;;;;;;;;;;;;;;5025858;28;19955;-68
2020/12/29 05:35:00;;;;;;;;;;;;;;;;;;5027241;28;19929;-69
2020/12/29 05:37:28;;;;;;;;;;;;;;;;;;5026815;28;19929;-68
2020/12/29 05:39:55;;;;;;;;;;;;;;;;;;5023223;28;19936;-69
2020/12/29 05:42:22;;;;;;;;;;;;;;;;;;5017760;28;19953;-68
2020/12/29 05:44:49;;;;;;;;;;;;;;;;;;5019290;28;19929;-68
2020/12/29 05:47:16;;;;;;;;;;;;;;;;;;5018004;28;19929;-69
2020/12/29 05:49:43;;;;;;;;;;;;;;;;;;5025463;28;20399;-69
2020/12/29 05:52:10;;;;;;;;;;;;;;;;;;5025147;28;19964;-69
2020/12/29 05:54:37;;;;;;;;;;;;;;;;;;5027007;28;19929;-69
2020/12/29 05:57:04;;;;;;;;;;;;;;;;;;5025114;28;19939;-69
2020/12/29 05:59:32;;;;;;;;;;;;;;;;;;5025941;28;20007;-69
2020/12/29 06:01:59;;;;;;;;;;;;;;;;;;5020975;28;19929;-69
2020/12/29 06:04:26;;;;;;;;;;;;;;;;;;5026438;28;19939;-68
2020/12/29 06:06:53;;;;;;;;;;;;;;;;;;5025841;28;20016;-69
2020/12/29 06:09:20;;;;;;;;;;;;;;;;;;5024678;28;19929;-68
2020/12/29 06:11:47;;;;;;;;;;;;;;;;;;5026414;28;20403;-69
2020/12/29 06:14:14;;;;;;;;;;;;;;;;;;5023670;28;19940;-69
2020/12/29 06:16:41;;;;;;;;;;;;;;;;;;5026978;28;19925;-69
2020/12/29 06:19:08;;;;;;;;;;;;;;;;;;5024713;28;19929;-69
2020/12/29 06:21:35;;;;;;;;;;;;;;;;;;5024640;28;20032;-69
2020/12/29 06:24:02;;;;;;;;;;;;;;;;;;5024126;28;19952;-68
2020/12/29 06:26:29;;;;;;;;;;;;;;;;;;5026073;28;19929;-69
2020/12/29 06:28:56;;;;;;;;;;;;;;;;;;5025033;28;19979;-69
2020/12/29 06:31:24;;;;;;;;;;;;;;;;;;5025299;28;20386;-69
2020/12/29 06:33:51;;;;;;;;;;;;;;;;;;5025875;28;19933;-68
2020/12/29 06:36:18;;;;;;;;;;;;;;;;;;5021706;28;19935;-68
2020/12/29 06:38:45;;;;;;;;;;;;;;;;;;5026022;28;20036;-68
2020/12/29 06:41:12;;;;;;;;;;;;;;;;;;5025635;28;20009;-68
2020/12/29 06:43:39;;;;;;;;;;;;;;;;;;5025497;28;19929;-68
2020/12/29 06:46:06;;;;;;;;;;;;;;;;;;5023387;28;20356;-68
2020/12/29 06:48:34;;;;;;;;;;;;;;;;;;5024352;28;19936;-69
2020/12/29 06:51:01;;;;;;;;;;;;;;;;;;5023060;28;20378;-68
2020/12/29 06:53:28;;;;;;;;;;;;;;;;;;5025406;28;20221;-69
2020/12/29 06:55:55;;;;;;;;;;;;;;;;;;5021979;28;19929;-69
2020/12/29 06:58:22;;;;;;;;;;;;;;;;;;5024618;28;19933;-69
2020/12/29 07:00:49;;;;;;;;;;;;;;;;;;5023983;28;19929;-69
2020/12/29 07:03:16;;;;;;;;;;;;;;;;;;5025105;28;19939;-69
2020/12/29 07:05:43;;;;;;;;;;;;;;;;;;5025209;28;19936;-69
2020/12/29 07:08:10;;;;;;;;;;;;;;;;;;5024916;28;20408;-68
2020/12/29 07:10:37;;;;;;;;;;;;;;;;;;5023113;28;20389;-68
2020/12/29 07:13:04;;;;;;;;;;;;;;;;;;5018864;28;20319;-68
2020/12/29 07:15:32;;;;;;;;;;;;;;;;;;5024431;28;19928;-69
2020/12/29 07:17:59;;;;;;;;;;;;;;;;;;5025139;28;19929;-68
2020/12/29 07:20:26;;;;;;;;;;;;;;;;;;5024378;28;19933;-69
2020/12/29 07:22:53;;;;;;;;;;;;;;;;;;5020787;28;19933;-69
2020/12/29 07:25:20;;;;;;;;;;;;;;;;;;5023997;28;19936;-69
2020/12/29 07:27:47;;;;;;;;;;;;;;;;;;5024184;28;19948;-69
2020/12/29 07:30:14;;;;;;;;;;;;;;;;;;5023698;28;20433;-68
2020/12/29 07:32:41;;;;;;;;;;;;;;;;;;5022655;28;19936;-69
2020/12/29 07:35:08;;;;;;;;;;;;;;;;;;5007256;28;19930;-68
2020/12/29 07:37:36;;;;;;;;;;;;;;;;;;5024162;28;19947;-68
2020/12/29 07:40:03;;;;;;;;;;;;;;;;;;5023882;28;19933;-69
2020/12/29 07:42:30;;;;;;;;;;;;;;;;;;5024590;28;20351;-69
2020/12/29 07:44:57;;;;;;;;;;;;;;;;;;5003432;28;19930;-68
2020/12/29 07:47:24;;;;;;;;;;;;;;;;;;5005148;28;19933;-68
2020/12/29 07:49:51;;;;;;;;;;;;;;;;;;5020731;28;19925;-69
2020/12/29 07:52:18;;;;;;;;;;;;;;;;;;5018574;28;19964;-69
2020/12/29 07:54:45;;;;;;;;;;;;;;;;;;5018941;28;19929;-69
2020/12/29 07:57:12;;;;;;;;;;;;;;;;;;5021201;28;20451;-68
2020/12/29 07:59:39;;;;;;;;;;;;;;;;;;5020832;28;20234;-68
2020/12/29 08:02:06;;;;;;;;;;;;;;;;;;5020897;28;19929;-68
2020/12/29 08:04:34;;;;;;;;;;;;;;;;;;5023001;28;19944;-69
2020/12/29 08:07:01;;;;;;;;;;;;;;;;;;5023358;28;20177;-69
2020/12/29 08:09:28;;;;;;;;;;;;;;;;;;5017960;28;20285;-69
2020/12/29 08:11:55;;;;;;;;;;;;;;;;;;5020310;28;19929;-69
2020/12/29 08:14:22;;;;;;;;;;;;;;;;;;5017601;28;19937;-69
2020/12/29 08:16:49;;;;;;;;;;;;;;;;;;5023598;28;19935;-69
2020/12/29 08:19:16;;;;;;;;;;;;;;;;;;5018259;28;19943;-68
2020/12/29 08:21:43;;;;;;;;;;;;;;;;;;5023351;28;20229;-69
2020/12/29 08:24:11;;;;;;;;;;;;;;;;;;5023740;28;19929;-69
2020/12/29 08:26:38;;;;;;;;;;;;;;;;;;5023642;28;19929;-69
2020/12/29 08:29:05;;;;;;;;;;;;;;;;;;5022218;28;19940;-69
2020/12/29 08:31:33;;;;;;;;;;;;;;;;;;5022479;28;19940;-69
2020/12/29 08:34:00;;;;;;;;;;;;;;;;;;5022503;28;20062;-69
2020/12/29 08:36:27;;;;;;;;;;;;;;;;;;5022607;28;20404;-70
2020/12/29 08:38:54;;;;;;;;;;;;;;;;;;5023372;28;19929;-69
2020/12/29 08:41:21;;;;;;;;;;;;;;;;;;5023110;28;19925;-69
2020/12/29 08:43:48;;;;;;;;;;;;;;;;;;5019942;28;20399;-69
2020/12/29 08:46:15;;;;;;;;;;;;;;;;;;5020171;28;20320;-69
2020/12/29 08:48:42;;;;;;;;;;;;;;;;;;5023606;28;19929;-69
2020/12/29 08:51:09;;;;;;;;;;;;;;;;;;5027724;28;19929;-69
2020/12/29 08:53:37;;;;;;;;;;;;;;;;;;5022189;28;20281;-69
2020/12/29 08:56:04;;;;;;;;;;;;;;;;;;5026074;28;19939;-69
2020/12/29 08:58:31;;;;;;;;;;;;;;;;;;5029138;28;20114;-64
2020/12/29 09:01:03;;;;;;;;;;;;;;;;;;5025788;28;19936;-66
2020/12/29 09:03:31;;;;;;;;;;;;;;;;;;5025511;28;19925;-65
2020/12/29 09:06:00;;;;;;;;;;;;;;;;;;5027413;28;19972;-66
2020/12/29 09:08:27;;;;;;;;;;;;;;;;;;5027920;28;19928;-68
2020/12/29 09:10:55;;;;;;;;;;;;;;;;;;5027196;28;20426;-66
2020/12/29 09:13:22;;;;;;;;;;;;;;;;;;5025007;28;19929;-66
2020/12/29 09:15:49;;;;;;;;;;;;;;;;;;5027050;28;19933;-69
2020/12/29 09:18:16;;;;;;;;;;;;;;;;;;5027225;28;19929;-65
2020/12/29 09:20:43;;;;;;;;;;;;;;;;;;5025300;28;20029;-69
2020/12/29 09:23:10;;;;;;;;;;;;;;;;;;5023791;28;20380;-70
2020/12/29 09:25:37;;;;;;;;;;;;;;;;;;5025190;28;19960;-70
2020/12/29 09:28:04;;;;;;;;;;;;;;;;;;5025770;28;20375;-67
2020/12/29 09:30:32;;;;;;;;;;;;;;;;;;5025071;28;19929;-66
2020/12/29 09:32:59;;;;;;;;;;;;;;;;;;5023090;28;19929;-68
2020/12/29 09:35:26;;;;;;;;;;;;;;;;;;5025768;28;19929;-69
2020/12/29 09:37:53;;;;;;;;;;;;;;;;;;5025086;28;19940;-69
2020/12/29 09:40:20;;;;;;;;;;;;;;;;;;5023883;28;19929;-65
2020/12/29 09:42:48;;;;;;;;;;;;;;;;;;5025955;28;20372;-67
2020/12/29 09:45:15;;;;;;;;;;;;;;;;;;5026604;28;19935;-65
2020/12/29 09:47:42;;;;;;;;;;;;;;;;;;5024293;28;19929;-65
2020/12/29 09:50:09;;;;;;;;;;;;;;;;;;5023792;28;19929;-65
2020/12/29 09:52:36;;;;;;;;;;;;;;;;;;5023243;28;19987;-65
2020/12/29 09:55:03;;;;;;;;;;;;;;;;;;5025255;28;19937;-65
2020/12/29 09:57:30;;;;;;;;;;;;;;;;;;5026305;28;20028;-65
2020/12/29 09:59:57;;;;;;;;;;;;;;;;;;5024838;28;19939;-65
2020/12/29 10:02:25;;;;;;;;;;;;;;;;;;5023782;28;20181;-66
2020/12/29 10:04:52;;;;;;;;;;;;;;;;;;5024444;28;20285;-65
2020/12/29 10:07:20;;;;;;;;;;;;;;;;;;5024855;28;20052;-65
2020/12/29 10:09:51;;;;;;;;;;;;;;;;;;5015682;28;19928;-66
2020/12/29 10:12:18;;;;;;;;;;;;;;;;;;5023233;28;19951;-66
2020/12/29 10:14:45;;;;;;;;;;;;;;;;;;5021136;28;19940;-66
2020/12/29 10:17:12;;;;;;;;;;;;;;;;;;5026384;28;19929;-66
2020/12/29 10:19:39;;;;;;;;;;;;;;;;;;5023969;28;19947;-66
2020/12/29 10:22:06;;;;;;;;;;;;;;;;;;5023929;28;19943;-66
2020/12/29 10:24:34;;;;;;;;;;;;;;;;;;5024819;28;19929;-66
2020/12/29 10:27:01;;;;;;;;;;;;;;;;;;5024905;28;19929;-66
2020/12/29 10:29:28;;;;;;;;;;;;;;;;;;5023977;28;20338;-65
2020/12/29 10:31:55;;;;;;;;;;;;;;;;;;5022163;28;19933;-66
2020/12/29 10:34:22;;;;;;;;;;;;;;;;;;5025461;28;20016;-66
2020/12/29 10:36:49;;;;;;;;;;;;;;;;;;5026043;28;19937;-66
2020/12/29 10:39:16;;;;;;;;;;;;;;;;;;5025351;28;19968;-66
2020/12/29 10:41:43;;;;;;;;;;;;;;;;;;5024173;28;20011;-66
2020/12/29 10:44:11;;;;;;;;;;;;;;;;;;5024765;28;20024;-66
2020/12/29 10:46:38;;;;;;;;;;;;;;;;;;5014730;28;19929;-66
2020/12/29 10:49:05;;;;;;;;;;;;;;;;;;5020568;28;19929;-66
2020/12/29 10:51:32;;;;;;;;;;;;;;;;;;5025654;28;20016;-66
2020/12/29 10:53:59;;;;;;;;;;;;;;;;;;5024056;28;19925;-66
2020/12/29 10:56:26;;;;;;;;;;;;;;;;;;5024118;28;19929;-66
2020/12/29 10:58:53;;;;;;;;;;;;;;;;;;5026588;28;19929;-66
2020/12/29 11:01:20;;;;;;;;;;;;;;;;;;5022578;28;20711;-66
2020/12/29 11:03:47;;;;;;;;;;;;;;;;;;5023637;28;19926;-66
2020/12/29 11:06:15;;;;;;;;;;;;;;;;;;5027719;28;20020;-66
2020/12/29 11:08:42;;;;;;;;;;;;;;;;;;5023190;28;20719;-66
2020/12/29 11:11:09;;;;;;;;;;;;;;;;;;5023543;28;19933;-67
2020/12/29 11:13:36;;;;;;;;;;;;;;;;;;5025191;28;19929;-67
2020/12/29 11:16:03;;;;;;;;;;;;;;;;;;5026534;28;20028;-67
2020/12/29 11:18:31;;;;;;;;;;;;;;;;;;5022197;28;20377;-67
2020/12/29 11:20:58;;;;;;;;;;;;;;;;;;5021292;28;19929;-67
2020/12/29 11:23:25;;;;;;;;;;;;;;;;;;5020132;28;20350;-67
2020/12/29 11:25:52;;;;;;;;;;;;;;;;;;5022584;28;20277;-67
2020/12/29 11:28:19;;;;;;;;;;;;;;;;;;5020491;28;19940;-67
2020/12/29 11:30:47;;;;;;;;;;;;;;;;;;5021028;28;20364;-67
2020/12/29 11:33:14;;;;;;;;;;;;;;;;;;5021379;28;20428;-67
2020/12/29 11:35:41;;;;;;;;;;;;;;;;;;5017994;28;19929;-67
2020/12/29 11:38:08;;;;;;;;;;;;;;;;;;5021067;28;21851;-67
2020/12/29 11:40:35;;;;;;;;;;;;;;;;;;5009521;28;20385;-67
2020/12/29 11:43:03;;;;;;;;;;;;;;;;;;5023149;28;19937;-67
2020/12/29 11:45:30;;;;;;;;;;;;;;;;;;5020568;28;19932;-67
2020/12/29 11:47:57;;;;;;;;;;;;;;;;;;5021901;28;19933;-67
2020/12/29 11:50:25;;;;;;;;;;;;;;;;;;5021892;28;20014;-67
2020/12/29 11:52:52;;;;;;;;;;;;;;;;;;5025007;28;20438;-67
2020/12/29 11:55:19;;;;;;;;;;;;;;;;;;5023617;28;19933;-67
2020/12/29 11:57:46;;;;;;;;;;;;;;;;;;5024049;28;19960;-67
2020/12/29 12:00:13;;;;;;;;;;;;;;;;;;5017660;28;20288;-66
2020/12/29 12:02:41;;;;;;;;;;;;;;;;;;5023684;28;20415;-67
2020/12/29 12:05:08;;;;;;;;;;;;;;;;;;5026319;28;19925;-67
2020/12/29 12:07:35;;;;;;;;;;;;;;;;;;5025099;28;19939;-67
2020/12/29 12:10:02;;;;;;;;;;;;;;;;;;5022031;28;20029;-67
2020/12/29 12:12:29;;;;;;;;;;;;;;;;;;5026068;28;20309;-67
2020/12/29 12:14:56;;;;;;;;;;;;;;;;;;5025634;28;19929;-67
2020/12/29 12:17:23;;;;;;;;;;;;;;;;;;5018321;28;20378;-67
2020/12/29 12:19:50;;;;;;;;;;;;;;;;;;5021573;28;19947;-67
2020/12/29 12:22:17;;;;;;;;;;;;;;;;;;5022613;28;20015;-67
2020/12/29 12:24:44;;;;;;;;;;;;;;;;;;5023899;28;19937;-67
2020/12/29 12:27:12;;;;;;;;;;;;;;;;;;5024820;28;19925;-67
2020/12/29 12:29:39;;;;;;;;;;;;;;;;;;5023968;28;20397;-67
2020/12/29 12:32:06;;;;;;;;;;;;;;;;;;5021394;28;19933;-67
2020/12/29 12:34:33;;;;;;;;;;;;;;;;;;5016856;28;19929;-67
2020/12/29 12:37:00;;;;;;;;;;;;;;;;;;5026106;28;21437;-67
2020/12/29 12:39:27;;;;;;;;;;;;;;;;;;5018804;28;19996;-67
2020/12/29 12:41:55;;;;;;;;;;;;;;;;;;5024380;28;19976;-67
2020/12/29 12:44:22;;;;;;;;;;;;;;;;;;5024953;28;20023;-67
2020/12/29 12:46:49;;;;;;;;;;;;;;;;;;5019368;28;20027;-67
2020/12/29 12:49:16;;;;;;;;;;;;;;;;;;5022617;28;19925;-67
2020/12/29 12:51:51;;;;;;;;;;;;;;;;;;5021760;28;19930;-67
2020/12/29 12:54:18;;;;;;;;;;;;;;;;;;5024164;28;19936;-67
2020/12/29 12:56:45;;;;;;;;;;;;;;;;;;5019378;28;19933;-67
2020/12/29 12:59:12;;;;;;;;;;;;;;;;;;5023401;28;20027;-67
2020/12/29 13:01:39;;;;;;;;;;;;;;;;;;5024045;28;19931;-67
2020/12/29 13:04:07;;;;;;;;;;;;;;;;;;5023659;28;19976;-67
2020/12/29 13:06:34;;;;;;;;;;;;;;;;;;5024479;28;19936;-67
2020/12/29 13:09:01;;;;;;;;;;;;;;;;;;5023255;28;19939;-68
2020/12/29 13:11:28;;;;;;;;;;;;;;;;;;5021929;28;20535;-67
2020/12/29 13:13:55;;;;;;;;;;;;;;;;;;5023105;28;19951;-67
2020/12/29 13:16:22;;;;;;;;;;;;;;;;;;5019727;28;19939;-67
2020/12/29 13:18:50;;;;;;;;;;;;;;;;;;5018332;28;20332;-68
2020/12/29 13:21:17;;;;;;;;;;;;;;;;;;5018305;28;19940;-67
2020/12/29 13:23:58;;;;;;;;;;;;;;;;;;5019186;28;20354;-67
2020/12/29 13:26:25;;;;;;;;;;;;;;;;;;5020870;28;19929;-67
2020/12/29 13:28:52;;;;;;;;;;;;;;;;;;5018130;28;19984;-67
2020/12/29 13:31:19;;;;;;;;;;;;;;;;;;5016764;28;19933;-67
2020/12/29 13:33:46;;;;;;;;;;;;;;;;;;5019626;28;19959;-67
2020/12/29 13:36:14;;;;;;;;;;;;;;;;;;5019945;28;19936;-67
2020/12/29 13:38:41;;;;;;;;;;;;;;;;;;5024871;28;19929;-67
2020/12/29 13:41:08;;;;;;;;;;;;;;;;;;5021094;28;20020;-67
2020/12/29 13:43:35;;;;;;;;;;;;;;;;;;5023426;28;20229;-67
2020/12/29 13:46:02;;;;;;;;;;;;;;;;;;5022123;28;19929;-67
2020/12/29 13:48:29;;;;;;;;;;;;;;;;;;5025498;28;19935;-67
2020/12/29 13:50:56;;;;;;;;;;;;;;;;;;5028016;28;19960;-68
2020/12/29 13:53:23;;;;;;;;;;;;;;;;;;5027974;28;20031;-68
2020/12/29 13:55:51;;;;;;;;;;;;;;;;;;5028878;28;19932;-66
2020/12/29 13:58:18;;;;;;;;;;;;;;;;;;5027041;28;19939;-68
2020/12/29 14:00:45;;;;;;;;;;;;;;;;;;5025499;28;19925;-68
2020/12/29 14:03:12;;;;;;;;;;;;;;;;;;5028897;28;20039;-67
2020/12/29 14:05:39;;;;;;;;;;;;;;;;;;5026174;28;20257;-67
2020/12/29 14:08:06;;;;;;;;;;;;;;;;;;5025673;28;20283;-67
2020/12/29 14:10:33;;;;;;;;;;;;;;;;;;5028388;28;19932;-67
2020/12/29 14:13:00;;;;;;;;;;;;;;;;;;5025582;28;19937;-67
2020/12/29 14:15:27;;;;;;;;;;;;;;;;;;5027357;28;19929;-67
2020/12/29 14:17:55;;;;;;;;;;;;;;;;;;5023839;28;19929;-67
2020/12/29 14:20:22;;;;;;;;;;;;;;;;;;5012912;28;19930;-67
2020/12/29 14:22:49;;;;;;;;;;;;;;;;;;5024437;28;19929;-67
2020/12/29 14:25:16;;;;;;;;;;;;;;;;;;5027567;28;20032;-67
2020/12/29 14:27:43;;;;;;;;;;;;;;;;;;5025342;28;19929;-68
2020/12/29 14:30:10;;;;;;;;;;;;;;;;;;5026642;28;20027;-67
2020/12/29 14:32:37;;;;;;;;;;;;;;;;;;5026722;28;19936;-67
2020/12/29 14:35:04;;;;;;;;;;;;;;;;;;5027000;28;19929;-67
2020/12/29 14:37:31;;;;;;;;;;;;;;;;;;5027509;28;19928;-67
2020/12/29 14:39:58;;;;;;;;;;;;;;;;;;5026744;28;19932;-67
2020/12/29 14:42:26;;;;;;;;;;;;;;;;;;5020289;28;19933;-67
2020/12/29 14:44:53;;;;;;;;;;;;;;;;;;5025147;28;20008;-67
2020/12/29 14:47:20;;;;;;;;;;;;;;;;;;5027277;28;19936;-67
2020/12/29 14:49:48;;;;;;;;;;;;;;;;;;5023100;28;19934;-67
2020/12/29 14:52:15;;;;;;;;;;;;;;;;;;5018408;28;19932;-67
2020/12/29 14:54:42;;;;;;;;;;;;;;;;;;5028376;28;20032;-67
2020/12/29 14:57:09;;;;;;;;;;;;;;;;;;5026409;28;19968;-67
2020/12/29 14:59:36;;;;;;;;;;;;;;;;;;5027164;28;20015;-67
2020/12/29 15:02:03;;;;;;;;;;;;;;;;;;5026671;28;20139;-67
2020/12/29 15:04:30;;;;;;;;;;;;;;;;;;5028080;28;19925;-67
2020/12/29 15:06:58;;;;;;;;;;;;;;;;;;5028035;28;20012;-67
2020/12/29 15:09:25;;;;;;;;;;;;;;;;;;5026984;28;20020;-67
2020/12/29 15:11:52;;;;;;;;;;;;;;;;;;5027469;28;20226;-67
2020/12/29 15:14:19;;;;;;;;;;;;;;;;;;5025565;28;20365;-67
2020/12/29 15:16:46;;;;;;;;;;;;;;;;;;5028381;28;19929;-67
2020/12/29 15:19:13;;;;;;;;;;;;;;;;;;5026038;28;20422;-67
2020/12/29 15:21:40;;;;;;;;;;;;;;;;;;5027601;28;19968;-67
2020/12/29 15:24:07;;;;;;;;;;;;;;;;;;5026220;28;20273;-67
2020/12/29 15:26:35;;;;;;;;;;;;;;;;;;5027434;28;19968;-67
2020/12/29 15:29:02;;;;;;;;;;;;;;;;;;5026845;28;20376;-67
2020/12/29 15:31:29;;;;;;;;;;;;;;;;;;5026799;28;20014;-67
2020/12/29 15:33:56;;;;;;;;;;;;;;;;;;5015748;28;19933;-67
2020/12/29 15:36:23;;;;;;;;;;;;;;;;;;5026161;28;19925;-67
2020/12/29 15:38:51;;;;;;;;;;;;;;;;;;5027593;28;20007;-67
2020/12/29 15:41:18;;;;;;;;;;;;;;;;;;5026380;28;21041;-67
2020/12/29 15:43:45;;;;;;;;;;;;;;;;;;5025543;28;19982;-67
2020/12/29 15:46:12;;;;;;;;;;;;;;;;;;5014297;28;19939;-67
2020/12/29 15:48:39;;;;;;;;;;;;;;;;;;5018279;28;20304;-67
2020/12/29 15:51:06;;;;;;;;;;;;;;;;;;5023596;28;19929;-67
2020/12/29 15:53:34;;;;;;;;;;;;;;;;;;5027702;28;20055;-67
2020/12/29 15:56:01;;;;;;;;;;;;;;;;;;5026559;28;20327;-67
2020/12/29 15:58:28;;;;;;;;;;;;;;;;;;5026601;28;19932;-67
2020/12/29 16:00:55;;;;;;;;;;;;;;;;;;5025552;28;20235;-67
2020/12/29 16:03:22;;;;;;;;;;;;;;;;;;5026366;28;19952;-67
2020/12/29 16:05:49;;;;;;;;;;;;;;;;;;5026553;28;19925;-68
2020/12/29 16:08:16;;;;;;;;;;;;;;;;;;5025302;28;19937;-67
2020/12/29 16:10:44;;;;;;;;;;;;;;;;;;5011001;28;20454;-68
2020/12/29 16:13:11;;;;;;;;;;;;;;;;;;5025329;28;19925;-67
2020/12/29 16:15:38;;;;;;;;;;;;;;;;;;5025869;28;20034;-67
2020/12/29 16:18:05;;;;;;;;;;;;;;;;;;5028028;28;20012;-67
2020/12/29 16:20:32;;;;;;;;;;;;;;;;;;5026733;28;19972;-68
2020/12/29 16:23:00;;;;;;;;;;;;;;;;;;5027405;28;20425;-68
2020/12/29 16:25:28;;;;;;;;;;;;;;;;;;5027669;28;19925;-67
2020/12/29 16:27:55;;;;;;;;;;;;;;;;;;5028573;28;19929;-67
2020/12/29 16:30:22;;;;;;;;;;;;;;;;;;5027400;28;20329;-67
2020/12/29 16:32:49;;;;;;;;;;;;;;;;;;5026949;28;19925;-66
2020/12/29 16:35:16;;;;;;;;;;;;;;;;;;5021364;28;20016;-66
2020/12/29 16:37:44;;;;;;;;;;;;;;;;;;5026454;28;19936;-66
2020/12/29 16:40:11;;;;;;;;;;;;;;;;;;5025916;28;20253;-66
2020/12/29 16:42:38;;;;;;;;;;;;;;;;;;5026779;28;20373;-66
2020/12/29 16:45:05;;;;;;;;;;;;;;;;;;5026286;28;19925;-66